Time;durP1;ratioP1;P1;durP2;ratioP2;P2;SDS_P1;SDS_P2;PMS_P1;PMS_P2;Temp;Humidity;BMP_temperature;BMP_pressure;BME280_temperature;BME280_humidity;BME280_pressure;Samples;Min_cycle;Max_cycle;Signal;HPM_P1;HPM_P2
2021/07/13 16:03:22;;;;;;;19.33;7.93;;;;;;;30.68;37.62;98409.66;125818;1094;103442;-69
2021/07/13 16:05:53;;;;;;;16.50;8.23;;;;;;;30.67;38.06;98408.00;125632;1093;103042;-70
2021/07/13 16:08:22;;;;;;;16.47;8.27;;;;;;;30.68;37.63;98417.90;125641;1093;102998;-71
2021/07/13 16:10:50;;;;;;;16.40;8.43;;;;;;;30.68;38.02;98417.90;125670;1093;103077;-68
2021/07/13 16:13:19;;;;;;;15.93;9.10;;;;;;;30.68;37.69;98408.85;125640;1092;102910;-68
2021/07/13 16:15:49;;;;;;;16.43;8.47;;;;;;;30.67;37.51;98420.91;125648;1093;102911;-68
2021/07/13 16:18:19;;;;;;;14.83;8.50;;;;;;;30.64;38.39;98424.17;125622;1093;103029;-71
2021/07/13 16:20:47;;;;;;;16.70;8.70;;;;;;;30.59;38.19;98425.78;125668;1093;102916;-69
2021/07/13 16:23:18;;;;;;;14.57;8.13;;;;;;;30.61;38.36;98424.69;125683;1093;103016;-69
2021/07/13 16:25:47;;;;;;;16.07;8.43;;;;;;;30.57;37.79;98418.88;125688;1093;103005;-69
2021/07/13 16:28:16;;;;;;;13.87;8.70;;;;;;;30.53;38.15;98414.98;125613;1092;103071;-67
2021/07/13 16:30:44;;;;;;;19.13;9.10;;;;;;;30.50;38.31;98424.55;125627;1094;102903;-68
2021/07/13 16:33:14;;;;;;;16.97;7.87;;;;;;;30.45;38.02;98419.00;125698;1092;102913;-67
2021/07/13 16:35:44;;;;;;;15.85;8.70;;;;;;;30.43;38.07;98429.41;125633;1095;102994;-68
2021/07/13 16:38:13;;;;;;;17.83;8.33;;;;;;;30.41;38.21;98426.09;125662;1093;102951;-67
2021/07/13 16:40:43;;;;;;;16.40;8.10;;;;;;;30.38;38.29;98418.38;125694;1093;102935;-68
2021/07/13 16:43:13;;;;;;;17.07;9.17;;;;;;;30.34;38.43;98423.56;125596;1092;103054;-70
2021/07/13 16:45:41;;;;;;;21.03;9.93;;;;;;;30.33;38.33;98429.31;125666;1096;103361;-69
2021/07/13 16:48:10;;;;;;;15.40;8.57;;;;;;;30.29;38.92;98431.73;125641;1095;102965;-70
2021/07/13 16:50:38;;;;;;;16.03;8.00;;;;;;;30.25;38.65;98436.06;125721;1093;103060;-68
2021/07/13 16:53:06;;;;;;;16.00;8.40;;;;;;;30.22;38.90;98433.83;125591;1093;102970;-69
2021/07/13 16:55:37;;;;;;;22.87;9.50;;;;;;;30.20;39.00;98439.59;125545;1091;103191;-69
2021/07/13 16:58:07;;;;;;;14.50;8.10;;;;;;;30.18;38.97;98438.17;125633;1092;103128;-69
2021/07/13 17:00:35;;;;;;;13.63;7.70;;;;;;;30.12;39.04;98440.88;125790;1094;103001;-68
2021/07/13 17:03:05;;;;;;;15.53;8.30;;;;;;;30.08;38.88;98445.21;125624;1092;103467;-68
2021/07/13 17:05:36;;;;;;;16.50;8.80;;;;;;;30.05;39.24;98448.45;125659;1096;102945;-69
2021/07/13 17:08:07;;;;;;;16.95;8.45;;;;;;;30.00;38.61;98438.23;125614;1093;103486;-65
2021/07/13 17:10:36;;;;;;;16.60;7.83;;;;;;;29.97;38.71;98437.90;125637;1093;102938;-67
2021/07/13 17:13:07;;;;;;;14.27;8.80;;;;;;;29.94;39.38;98432.92;125623;1095;102952;-68
2021/07/13 17:15:36;;;;;;;16.70;8.53;;;;;;;29.90;39.49;98445.48;125624;1093;103014;-67
2021/07/13 17:18:07;;;;;;;19.60;8.80;;;;;;;29.85;39.57;98443.51;125608;1093;103017;-67
2021/07/13 17:20:39;;;;;;;15.47;8.73;;;;;;;29.81;39.27;98447.84;125509;1091;102955;-68
2021/07/13 17:23:07;;;;;;;16.87;8.97;;;;;;;29.76;39.27;98434.88;125588;1092;103399;-67
2021/07/13 17:25:39;;;;;;;16.90;8.58;;;;;;;29.74;39.05;98442.55;125577;1093;103042;-66
2021/07/13 17:28:08;;;;;;;16.50;9.60;;;;;;;29.70;39.71;98442.20;125662;1092;102974;-66
2021/07/13 17:30:36;;;;;;;17.60;8.90;;;;;;;29.68;39.27;98451.77;125587;1095;103100;-69
2021/07/13 17:33:08;;;;;;;18.27;9.20;;;;;;;29.67;39.62;98450.93;125672;1093;103104;-68
2021/07/13 17:35:42;;;;;;;19.87;8.93;;;;;;;29.66;39.87;98448.45;125655;1092;102938;-68
2021/07/13 17:38:13;;;;;;;17.90;9.50;;;;;;;29.61;39.89;98446.45;125653;1092;102942;-68
2021/07/13 17:40:41;;;;;;;17.50;9.40;;;;;;;29.55;39.79;98448.30;125644;1094;103029;-67
2021/07/13 17:43:15;;;;;;;21.87;10.03;;;;;;;29.49;40.48;98456.70;125574;1093;102939;-65
2021/07/13 17:46:01;;;;;;;19.90;9.50;;;;;;;29.37;40.37;98443.08;125527;1093;103048;-65
2021/07/13 17:48:31;;;;;;;21.27;9.97;;;;;;;29.29;40.37;98443.49;125635;1093;102987;-67
2021/07/13 17:50:59;;;;;;;19.40;9.47;;;;;;;29.20;40.66;98446.64;125621;1092;103081;-67
2021/07/13 17:53:28;;;;;;;17.27;9.17;;;;;;;29.09;40.43;98442.07;125675;1093;103097;-67
2021/07/13 17:55:56;;;;;;;19.93;10.43;;;;;;;29.01;41.13;98447.95;125681;1092;102933;-65
2021/07/13 17:58:25;;;;;;;20.23;10.00;;;;;;;28.97;41.02;98451.18;125551;1095;102943;-64
2021/07/13 18:00:54;;;;;;;20.03;10.37;;;;;;;28.90;40.86;98453.27;125574;1093;103024;-66
2021/07/13 18:03:23;;;;;;;17.20;10.10;;;;;;;28.84;40.90;98456.98;126940;1093;102911;-66
2021/07/13 18:05:51;;;;;;;17.97;10.00;;;;;;;28.77;41.32;98448.10;125634;1092;103440;-67
2021/07/13 18:08:22;;;;;;;20.23;10.13;;;;;;;28.72;41.87;98458.92;125666;1093;102977;-65
2021/07/13 18:10:52;;;;;;;21.45;10.25;;;;;;;28.62;41.72;98454.09;125667;1096;103004;-67
2021/07/13 18:13:21;;;;;;;19.03;10.30;;;;;;;28.54;41.84;98463.50;127540;1093;101807;-66
2021/07/13 18:15:51;;;;;;;20.07;9.80;;;;;;;28.48;41.75;98456.30;125645;1093;103007;-67
2021/07/13 18:18:22;;;;;;;23.07;10.17;;;;;;;28.39;41.79;98450.37;125632;1092;103043;-66
2021/07/13 18:20:50;;;;;;;16.20;10.23;;;;;;;28.34;42.08;98450.27;125614;1093;103046;-66
2021/07/13 18:23:19;;;;;;;18.87;10.87;;;;;;;28.27;42.26;98453.15;125530;1092;103065;-66
2021/07/13 18:25:47;;;;;;;18.47;10.07;;;;;;;28.21;42.49;98454.95;127601;1093;100954;-65
2021/07/13 18:28:16;;;;;;;20.03;10.63;;;;;;;28.20;42.69;98458.77;127687;1093;101329;-64
2021/07/13 18:30:44;;;;;;;18.50;10.43;;;;;;;28.13;42.31;98463.53;127732;1093;100679;-64
2021/07/13 18:33:14;;;;;;;19.10;10.47;;;;;;;28.10;42.78;98458.52;127151;1093;102965;-65
2021/07/13 18:35:44;;;;;;;18.40;10.05;;;;;;;28.08;42.97;98466.97;125601;1092;102994;-65
2021/07/13 18:38:14;;;;;;;20.37;11.20;;;;;;;28.03;42.72;98466.02;125631;1093;103031;-66
2021/07/13 18:40:44;;;;;;;18.57;10.90;;;;;;;27.96;42.83;98466.16;125631;1096;102938;-66
2021/07/13 18:43:15;;;;;;;22.47;12.37;;;;;;;27.92;42.88;98468.52;125653;1094;102943;-66
2021/07/13 18:45:43;;;;;;;21.37;12.17;;;;;;;27.87;43.08;98464.86;125613;1095;102927;-66
2021/07/13 18:48:15;;;;;;;24.30;12.47;;;;;;;27.83;43.45;98471.87;125599;1096;103055;-64
2021/07/13 18:50:46;;;;;;;22.10;13.17;;;;;;;27.75;43.67;98475.80;125670;1096;103050;-65
2021/07/13 18:53:17;;;;;;;21.33;12.47;;;;;;;27.70;43.79;98472.95;125628;1095;102942;-66
2021/07/13 18:55:46;;;;;;;22.03;12.97;;;;;;;27.66;43.72;98482.69;125663;1092;102936;-66
2021/07/13 18:58:16;;;;;;;23.40;13.17;;;;;;;27.60;43.77;98474.38;125634;1094;102995;-66
2021/07/13 19:01:10;;;;;;;23.05;12.73;;;;;;;27.52;43.79;98480.19;125629;1093;102922;-65
2021/07/13 19:03:39;;;;;;;23.57;12.70;;;;;;;27.43;43.95;98489.78;125617;1092;102977;-67
2021/07/13 19:06:10;;;;;;;21.35;11.45;;;;;;;27.36;44.09;98484.42;125650;1095;102938;-65
2021/07/13 19:08:39;;;;;;;19.90;12.07;;;;;;;27.32;44.28;98491.41;125599;1093;102919;-67
2021/07/13 19:11:10;;;;;;;23.73;11.93;;;;;;;27.29;44.29;98491.91;125693;1093;104452;-65
2021/07/13 19:13:39;;;;;;;23.63;11.63;;;;;;;27.24;44.42;98498.06;125636;1093;102997;-67
2021/07/13 19:16:10;;;;;;;19.70;12.10;;;;;;;27.22;44.31;98499.38;125599;1093;103003;-64
2021/07/13 19:18:40;;;;;;;27.13;15.23;;;;;;;27.20;44.71;98499.59;125525;1093;103059;-68
2021/07/13 19:21:11;;;;;;;25.65;14.85;;;;;;;27.13;44.66;98499.70;125609;1092;103042;-67
2021/07/13 19:23:40;;;;;;;27.80;16.07;;;;;;;27.07;44.77;98497.09;125646;1092;102919;-69
2021/07/13 19:26:11;;;;;;;25.27;13.73;;;;;;;26.99;44.76;98499.08;125625;1092;102997;-66
2021/07/13 19:28:40;;;;;;;25.83;13.47;;;;;;;26.90;44.91;98495.02;125651;1093;102915;-65
2021/07/13 19:31:11;;;;;;;28.57;12.40;;;;;;;26.83;44.99;98494.27;125629;1093;103006;-66
2021/07/13 19:39:01;;;;;;;21.50;12.07;;;;;;;26.59;45.28;98500.44;125595;1092;103192;-67
2021/07/13 19:41:29;;;;;;;25.00;13.00;;;;;;;26.57;45.40;98501.74;125628;1093;102913;-67
2021/07/13 19:43:59;;;;;;;23.00;13.70;;;;;;;26.54;45.37;98502.20;125609;1093;102944;-68
2021/07/13 19:46:30;;;;;;;20.97;11.97;;;;;;;26.50;45.94;98504.53;125689;1093;102919;-68
2021/07/13 19:49:00;;;;;;;21.07;12.40;;;;;;;26.46;45.77;98497.91;125649;1093;103094;-69
2021/07/13 19:51:28;;;;;;;23.33;12.70;;;;;;;26.43;45.73;98506.54;125611;1093;103040;-69
2021/07/13 19:53:57;;;;;;;23.17;12.20;;;;;;;26.39;46.02;98495.24;125610;1093;103034;-69
2021/07/13 19:56:25;;;;;;;21.27;12.13;;;;;;;26.37;45.72;98493.81;125629;1093;102959;-69
2021/07/13 19:58:57;;;;;;;25.83;13.20;;;;;;;26.31;46.03;98492.82;125630;1093;102913;-68
2021/07/13 20:01:25;;;;;;;22.03;12.67;;;;;;;26.27;46.58;98487.00;125614;1093;102997;-69
2021/07/13 20:03:54;;;;;;;22.37;12.77;;;;;;;26.24;46.36;98490.19;125616;1091;103043;-68
2021/07/13 20:06:22;;;;;;;21.63;12.03;;;;;;;26.23;46.47;98487.70;125677;1093;102913;-68
2021/07/13 20:08:51;;;;;;;21.60;12.77;;;;;;;26.20;46.49;98488.16;125610;1093;102916;-66
2021/07/13 20:11:19;;;;;;;21.20;12.43;;;;;;;26.18;46.44;98482.10;125578;1094;103062;-66
2021/07/13 20:13:48;;;;;;;24.97;13.73;;;;;;;26.13;46.81;98472.71;125682;1096;103006;-68
2021/07/13 20:16:18;;;;;;;24.83;13.60;;;;;;;26.10;46.75;98484.03;125599;1096;102923;-66
2021/07/13 20:18:52;;;;;;;23.73;13.67;;;;;;;26.01;47.14;98485.39;125623;1094;102991;-67
2021/07/13 20:21:20;;;;;;;24.50;14.43;;;;;;;25.92;47.12;98473.97;125567;1093;103090;-68
2021/07/13 20:23:48;;;;;;;30.33;15.67;;;;;;;25.81;47.17;98472.83;125435;1093;102913;-67
2021/07/13 20:26:19;;;;;;;25.80;14.83;;;;;;;25.65;47.17;98473.41;125584;1093;103126;-70
2021/07/13 20:28:48;;;;;;;28.07;15.57;;;;;;;25.48;47.14;98476.69;125575;1092;102965;-67
2021/07/13 20:31:17;;;;;;;25.10;16.27;;;;;;;25.32;47.51;98478.06;125557;1092;102988;-68
2021/07/13 20:33:46;;;;;;;24.93;15.43;;;;;;;25.18;47.52;98479.24;125546;1093;102949;-70
2021/07/13 20:36:15;;;;;;;25.80;15.20;;;;;;;25.08;47.84;98479.71;125563;1093;102918;-69
2021/07/13 20:38:44;;;;;;;27.67;16.20;;;;;;;25.00;47.80;98475.39;125619;1093;103007;-69
2021/07/13 20:41:14;;;;;;;28.40;16.03;;;;;;;24.93;47.86;98480.88;125449;1093;102796;-67
2021/07/13 20:43:42;;;;;;;26.97;15.97;;;;;;;24.91;48.09;98472.11;125597;1093;103042;-68
2021/07/13 20:46:11;;;;;;;27.40;17.25;;;;;;;24.89;48.13;98476.08;125532;1092;103030;-68
2021/07/13 20:48:40;;;;;;;28.07;16.90;;;;;;;24.88;48.19;98477.98;125580;1093;102964;-68
2021/07/13 20:51:08;;;;;;;26.03;16.00;;;;;;;24.87;48.76;98479.03;125616;1093;103029;-69
2021/07/13 20:53:37;;;;;;;25.40;16.87;;;;;;;24.85;48.42;98474.88;125583;1092;102912;-68
2021/07/13 20:56:06;;;;;;;25.63;15.30;;;;;;;24.83;48.91;98485.96;125567;1093;102915;-67
2021/07/13 20:58:39;;;;;;;26.27;14.40;;;;;;;24.80;48.52;98483.68;125601;1093;102998;-68
2021/07/13 21:01:10;;;;;;;24.97;15.47;;;;;;;24.73;48.91;98481.01;125597;1093;103124;-68
2021/07/13 21:03:39;;;;;;;24.13;14.83;;;;;;;24.69;49.16;98477.03;125564;1092;103047;-67
2021/07/13 21:06:07;;;;;;;23.43;14.90;;;;;;;24.64;49.49;98483.13;125535;1092;102970;-66
2021/07/13 21:08:36;;;;;;;26.07;16.00;;;;;;;24.61;49.37;98480.84;125581;1093;102991;-67
2021/07/13 21:11:04;;;;;;;23.60;14.37;;;;;;;24.56;49.48;98474.38;125591;1093;103061;-68
2021/07/13 21:13:33;;;;;;;24.60;15.00;;;;;;;24.52;49.50;98474.80;125658;1092;103541;-68
